sensor_id;sensor_type;location;lat;lon;timestamp;P1;durP1;ratioP1;P2;durP2;ratioP2
67867;SDS011;54672;46.096;14.470;2024-02-26T00:02:15;10.95;;;3.63;;
67867;SDS011;54672;46.096;14.470;2024-02-26T00:04:41;5.70;;;2.80;;
67867;SDS011;54672;46.096;14.470;2024-02-26T00:07:07;7.70;;;3.58;;
67867;SDS011;54672;46.096;14.470;2024-02-26T00:09:32;12.32;;;5.55;;
67867;SDS011;54672;46.096;14.470;2024-02-26T00:12:01;12.10;;;5.13;;
67867;SDS011;54672;46.096;14.470;2024-02-26T00:14:28;7.85;;;3.88;;
67867;SDS011;54672;46.096;14.470;2024-02-26T00:16:54;11.70;;;4.13;;
67867;SDS011;54672;46.096;14.470;2024-02-26T00:19:20;9.70;;;4.30;;
67867;SDS011;54672;46.096;14.470;2024-02-26T00:21:45;10.65;;;4.55;;
67867;SDS011;54672;46.096;14.470;2024-02-26T00:24:11;11.95;;;4.95;;
67867;SDS011;54672;46.096;14.470;2024-02-26T00:26:36;14.60;;;5.20;;
67867;SDS011;54672;46.096;14.470;2024-02-26T00:29:01;12.27;;;5.07;;
67867;SDS011;54672;46.096;14.470;2024-02-26T00:31:27;12.45;;;5.20;;
67867;SDS011;54672;46.096;14.470;2024-02-26T00:33:52;12.20;;;4.93;;
67867;SDS011;54672;46.096;14.470;2024-02-26T00:36:18;9.45;;;4.10;;
67867;SDS011;54672;46.096;14.470;2024-02-26T00:38:44;10.82;;;4.57;;
67867;SDS011;54672;46.096;14.470;2024-02-26T00:41:11;9.50;;;5.13;;
67867;SDS011;54672;46.096;14.470;2024-02-26T00:43:36;12.25;;;5.55;;
67867;SDS011;54672;46.096;14.470;2024-02-26T00:46:04;10.27;;;4.93;;
67867;SDS011;54672;46.096;14.470;2024-02-26T00:48:30;12.75;;;5.75;;
67867;SDS011;54672;46.096;14.470;2024-02-26T00:50:55;10.10;;;4.90;;
67867;SDS011;54672;46.096;14.470;2024-02-26T00:53:21;8.88;;;4.72;;
67867;SDS011;54672;46.096;14.470;2024-02-26T00:55:46;9.50;;;4.95;;
67867;SDS011;54672;46.096;14.470;2024-02-26T00:58:12;14.43;;;5.22;;
67867;SDS011;54672;46.096;14.470;2024-02-26T01:00:37;7.07;;;3.17;;
67867;SDS011;54672;46.096;14.470;2024-02-26T01:03:02;5.70;;;2.90;;
67867;SDS011;54672;46.096;14.470;2024-02-26T01:05:29;5.63;;;2.85;;
67867;SDS011;54672;46.096;14.470;2024-02-26T01:07:55;7.40;;;2.92;;
67867;SDS011;54672;46.096;14.470;2024-02-26T01:10:20;4.78;;;2.60;;
67867;SDS011;54672;46.096;14.470;2024-02-26T01:12:45;6.63;;;3.55;;
67867;SDS011;54672;46.096;14.470;2024-02-26T01:15:11;5.88;;;3.10;;
67867;SDS011;54672;46.096;14.470;2024-02-26T01:17:36;6.03;;;3.00;;
67867;SDS011;54672;46.096;14.470;2024-02-26T01:20:04;5.85;;;3.20;;
67867;SDS011;54672;46.096;14.470;2024-02-26T01:22:30;6.32;;;3.33;;
67867;SDS011;54672;46.096;14.470;2024-02-26T01:24:55;9.00;;;3.78;;
67867;SDS011;54672;46.096;14.470;2024-02-26T01:27:21;9.18;;;3.67;;
67867;SDS011;54672;46.096;14.470;2024-02-26T01:29:51;13.82;;;3.55;;
67867;SDS011;54672;46.096;14.470;2024-02-26T01:32:17;12.02;;;4.78;;
67867;SDS011;54672;46.096;14.470;2024-02-26T01:34:43;7.55;;;3.95;;
67867;SDS011;54672;46.096;14.470;2024-02-26T01:37:08;25.13;;;5.13;;
67867;SDS011;54672;46.096;14.470;2024-02-26T01:39:33;34.00;;;5.95;;
67867;SDS011;54672;46.096;14.470;2024-02-26T01:41:59;19.20;;;4.85;;
67867;SDS011;54672;46.096;14.470;2024-02-26T01:44:25;13.23;;;4.18;;
67867;SDS011;54672;46.096;14.470;2024-02-26T01:46:51;20.10;;;5.10;;
67867;SDS011;54672;46.096;14.470;2024-02-26T01:49:18;12.80;;;4.72;;
67867;SDS011;54672;46.096;14.470;2024-02-26T01:51:43;14.65;;;6.25;;
67867;SDS011;54672;46.096;14.470;2024-02-26T01:54:09;13.25;;;5.70;;
67867;SDS011;54672;46.096;14.470;2024-02-26T01:56:35;13.40;;;5.18;;
67867;SDS011;54672;46.096;14.470;2024-02-26T01:59:02;12.77;;;4.75;;
67867;SDS011;54672;46.096;14.470;2024-02-26T02:01:29;8.80;;;4.82;;
67867;SDS011;54672;46.096;14.470;2024-02-26T02:03:57;7.38;;;4.28;;
67867;SDS011;54672;46.096;14.470;2024-02-26T02:06:24;16.73;;;5.15;;
67867;SDS011;54672;46.096;14.470;2024-02-26T02:08:50;21.50;;;5.15;;
67867;SDS011;54672;46.096;14.470;2024-02-26T02:11:16;15.88;;;4.68;;
67867;SDS011;54672;46.096;14.470;2024-02-26T02:13:42;29.00;;;5.43;;
67867;SDS011;54672;46.096;14.470;2024-02-26T02:16:07;14.95;;;4.32;;
67867;SDS011;54672;46.096;14.470;2024-02-26T02:18:33;12.20;;;4.38;;
67867;SDS011;54672;46.096;14.470;2024-02-26T02:21:02;21.55;;;5.25;;
67867;SDS011;54672;46.096;14.470;2024-02-26T02:23:27;18.80;;;4.93;;
67867;SDS011;54672;46.096;14.470;2024-02-26T02:25:53;13.43;;;5.00;;
67867;SDS011;54672;46.096;14.470;2024-02-26T02:28:20;23.08;;;5.15;;
67867;SDS011;54672;46.096;14.470;2024-02-26T02:30:46;29.52;;;5.60;;
67867;SDS011;54672;46.096;14.470;2024-02-26T02:33:12;20.90;;;5.00;;
67867;SDS011;54672;46.096;14.470;2024-02-26T02:35:38;19.65;;;5.00;;
67867;SDS011;54672;46.096;14.470;2024-02-26T02:38:03;9.07;;;4.35;;
67867;SDS011;54672;46.096;14.470;2024-02-26T02:40:29;17.35;;;4.90;;
67867;SDS011;54672;46.096;14.470;2024-02-26T02:42:54;20.83;;;4.70;;
67867;SDS011;54672;46.096;14.470;2024-02-26T02:45:20;19.58;;;4.93;;
67867;SDS011;54672;46.096;14.470;2024-02-26T02:47:45;14.60;;;4.32;;
67867;SDS011;54672;46.096;14.470;2024-02-26T02:50:11;9.50;;;4.63;;
67867;SDS011;54672;46.096;14.470;2024-02-26T02:52:36;9.30;;;4.13;;
67867;SDS011;54672;46.096;14.470;2024-02-26T02:55:01;13.68;;;4.43;;
67867;SDS011;54672;46.096;14.470;2024-02-26T02:57:27;10.55;;;4.28;;
67867;SDS011;54672;46.096;14.470;2024-02-26T02:59:53;14.25;;;4.15;;
67867;SDS011;54672;46.096;14.470;2024-02-26T03:02:19;12.07;;;4.72;;
67867;SDS011;54672;46.096;14.470;2024-02-26T03:04:44;7.30;;;3.92;;
67867;SDS011;54672;46.096;14.470;2024-02-26T03:07:09;9.38;;;4.00;;
67867;SDS011;54672;46.096;14.470;2024-02-26T03:09:35;12.73;;;4.30;;
67867;SDS011;54672;46.096;14.470;2024-02-26T03:12:00;13.95;;;4.40;;
67867;SDS011;54672;46.096;14.470;2024-02-26T03:14:26;8.70;;;4.18;;
67867;SDS011;54672;46.096;14.470;2024-02-26T03:16:54;10.57;;;4.35;;
67867;SDS011;54672;46.096;14.470;2024-02-26T03:19:20;13.02;;;4.60;;
67867;SDS011;54672;46.096;14.470;2024-02-26T03:21:46;9.07;;;3.88;;
67867;SDS011;54672;46.096;14.470;2024-02-26T03:24:11;8.90;;;4.38;;
67867;SDS011;54672;46.096;14.470;2024-02-26T03:26:37;15.10;;;4.15;;
67867;SDS011;54672;46.096;14.470;2024-02-26T03:29:03;14.32;;;5.30;;
67867;SDS011;54672;46.096;14.470;2024-02-26T03:31:29;8.98;;;4.43;;
67867;SDS011;54672;46.096;14.470;2024-02-26T03:33:54;14.90;;;4.63;;
67867;SDS011;54672;46.096;14.470;2024-02-26T03:36:20;12.05;;;4.40;;
67867;SDS011;54672;46.096;14.470;2024-02-26T03:38:46;6.70;;;3.90;;
67867;SDS011;54672;46.096;14.470;2024-02-26T03:41:12;7.72;;;4.07;;
67867;SDS011;54672;46.096;14.470;2024-02-26T03:43:38;7.25;;;4.03;;
67867;SDS011;54672;46.096;14.470;2024-02-26T03:46:03;9.15;;;4.13;;
67867;SDS011;54672;46.096;14.470;2024-02-26T03:48:29;10.63;;;4.57;;
67867;SDS011;54672;46.096;14.470;2024-02-26T03:50:54;7.75;;;4.20;;
67867;SDS011;54672;46.096;14.470;2024-02-26T03:53:20;11.50;;;3.83;;
67867;SDS011;54672;46.096;14.470;2024-02-26T03:55:45;17.15;;;4.30;;
67867;SDS011;54672;46.096;14.470;2024-02-26T03:58:12;15.85;;;4.00;;
67867;SDS011;54672;46.096;14.470;2024-02-26T04:00:38;11.55;;;4.13;;
67867;SDS011;54672;46.096;14.470;2024-02-26T04:03:03;4.72;;;2.10;;
67867;SDS011;54672;46.096;14.470;2024-02-26T04:05:29;7.70;;;3.50;;
67867;SDS011;54672;46.096;14.470;2024-02-26T04:07:54;8.38;;;2.33;;
67867;SDS011;54672;46.096;14.470;2024-02-26T04:10:20;6.57;;;3.45;;
67867;SDS011;54672;46.096;14.470;2024-02-26T04:12:45;5.45;;;2.97;;
67867;SDS011;54672;46.096;14.470;2024-02-26T04:15:11;5.10;;;2.83;;
67867;SDS011;54672;46.096;14.470;2024-02-26T04:17:36;9.10;;;3.03;;
67867;SDS011;54672;46.096;14.470;2024-02-26T04:20:03;7.88;;;2.95;;
67867;SDS011;54672;46.096;14.470;2024-02-26T04:22:30;11.73;;;3.58;;
67867;SDS011;54672;46.096;14.470;2024-02-26T04:24:57;7.03;;;3.10;;
67867;SDS011;54672;46.096;14.470;2024-02-26T04:27:22;6.47;;;2.65;;
67867;SDS011;54672;46.096;14.470;2024-02-26T04:29:48;8.73;;;3.28;;
67867;SDS011;54672;46.096;14.470;2024-02-26T04:32:13;10.85;;;2.92;;
67867;SDS011;54672;46.096;14.470;2024-02-26T04:34:38;8.77;;;2.55;;
67867;SDS011;54672;46.096;14.470;2024-02-26T04:37:04;7.32;;;3.40;;
67867;SDS011;54672;46.096;14.470;2024-02-26T04:39:29;4.47;;;2.25;;
67867;SDS011;54672;46.096;14.470;2024-02-26T04:41:55;7.22;;;3.30;;
67867;SDS011;54672;46.096;14.470;2024-02-26T04:44:20;10.40;;;2.72;;
67867;SDS011;54672;46.096;14.470;2024-02-26T04:46:46;9.90;;;3.20;;
67867;SDS011;54672;46.096;14.470;2024-02-26T04:49:11;7.28;;;2.97;;
67867;SDS011;54672;46.096;14.470;2024-02-26T04:51:36;6.28;;;3.78;;
67867;SDS011;54672;46.096;14.470;2024-02-26T04:54:02;17.17;;;2.95;;
67867;SDS011;54672;46.096;14.470;2024-02-26T04:56:28;8.93;;;3.20;;
67867;SDS011;54672;46.096;14.470;2024-02-26T04:58:53;8.60;;;2.92;;
67867;SDS011;54672;46.096;14.470;2024-02-26T05:01:18;16.88;;;3.92;;
67867;SDS011;54672;46.096;14.470;2024-02-26T05:03:44;13.77;;;3.33;;
67867;SDS011;54672;46.096;14.470;2024-02-26T05:06:10;11.80;;;3.17;;
67867;SDS011;54672;46.096;14.470;2024-02-26T05:08:35;22.30;;;4.60;;
67867;SDS011;54672;46.096;14.470;2024-02-26T05:11:04;24.83;;;4.60;;
67867;SDS011;54672;46.096;14.470;2024-02-26T05:13:31;34.10;;;4.10;;
67867;SDS011;54672;46.096;14.470;2024-02-26T05:15:56;37.53;;;5.65;;
67867;SDS011;54672;46.096;14.470;2024-02-26T05:18:22;11.18;;;4.32;;
67867;SDS011;54672;46.096;14.470;2024-02-26T05:20:48;11.80;;;3.47;;
67867;SDS011;54672;46.096;14.470;2024-02-26T05:23:13;22.27;;;4.18;;
67867;SDS011;54672;46.096;14.470;2024-02-26T05:25:39;9.57;;;4.03;;
67867;SDS011;54672;46.096;14.470;2024-02-26T05:28:05;20.40;;;4.60;;
67867;SDS011;54672;46.096;14.470;2024-02-26T05:30:30;7.75;;;3.35;;
67867;SDS011;54672;46.096;14.470;2024-02-26T05:32:56;30.10;;;4.85;;
67867;SDS011;54672;46.096;14.470;2024-02-26T05:35:21;21.92;;;4.35;;
67867;SDS011;54672;46.096;14.470;2024-02-26T05:37:47;32.47;;;3.42;;
67867;SDS011;54672;46.096;14.470;2024-02-26T05:40:12;14.40;;;3.92;;
67867;SDS011;54672;46.096;14.470;2024-02-26T05:42:38;16.95;;;4.03;;
67867;SDS011;54672;46.096;14.470;2024-02-26T05:45:04;15.35;;;3.42;;
67867;SDS011;54672;46.096;14.470;2024-02-26T05:47:34;23.60;;;3.85;;
67867;SDS011;54672;46.096;14.470;2024-02-26T05:50:00;4.60;;;2.53;;
67867;SDS011;54672;46.096;14.470;2024-02-26T05:52:26;12.07;;;3.13;;
67867;SDS011;54672;46.096;14.470;2024-02-26T05:54:53;8.98;;;3.42;;
67867;SDS011;54672;46.096;14.470;2024-02-26T05:57:18;22.85;;;3.40;;
67867;SDS011;54672;46.096;14.470;2024-02-26T05:59:44;13.82;;;3.60;;
67867;SDS011;54672;46.096;14.470;2024-02-26T06:02:09;7.53;;;3.00;;
67867;SDS011;54672;46.096;14.470;2024-02-26T06:04:35;11.90;;;3.85;;
67867;SDS011;54672;46.096;14.470;2024-02-26T06:07:00;16.75;;;3.63;;
67867;SDS011;54672;46.096;14.470;2024-02-26T06:09:26;20.50;;;4.25;;
67867;SDS011;54672;46.096;14.470;2024-02-26T06:11:51;21.95;;;3.83;;
67867;SDS011;54672;46.096;14.470;2024-02-26T06:14:17;18.05;;;3.78;;
67867;SDS011;54672;46.096;14.470;2024-02-26T06:16:43;14.63;;;4.15;;
67867;SDS011;54672;46.096;14.470;2024-02-26T06:19:09;21.83;;;3.85;;
67867;SDS011;54672;46.096;14.470;2024-02-26T06:21:34;17.63;;;3.67;;
67867;SDS011;54672;46.096;14.470;2024-02-26T06:24:00;21.10;;;3.58;;
67867;SDS011;54672;46.096;14.470;2024-02-26T06:26:26;23.70;;;4.05;;
67867;SDS011;54672;46.096;14.470;2024-02-26T06:28:54;14.63;;;4.15;;
67867;SDS011;54672;46.096;14.470;2024-02-26T06:31:19;17.88;;;3.78;;
67867;SDS011;54672;46.096;14.470;2024-02-26T06:33:47;16.90;;;4.60;;
67867;SDS011;54672;46.096;14.470;2024-02-26T06:36:13;14.65;;;4.53;;
67867;SDS011;54672;46.096;14.470;2024-02-26T06:38:38;22.23;;;4.93;;
67867;SDS011;54672;46.096;14.470;2024-02-26T06:41:04;12.77;;;4.30;;
67867;SDS011;54672;46.096;14.470;2024-02-26T06:43:29;13.55;;;4.03;;
67867;SDS011;54672;46.096;14.470;2024-02-26T06:45:55;14.05;;;4.40;;
67867;SDS011;54672;46.096;14.470;2024-02-26T06:48:20;14.63;;;5.00;;
67867;SDS011;54672;46.096;14.470;2024-02-26T06:50:48;25.35;;;5.28;;
67867;SDS011;54672;46.096;14.470;2024-02-26T06:53:13;19.33;;;3.95;;
67867;SDS011;54672;46.096;14.470;2024-02-26T06:55:38;9.85;;;4.18;;
67867;SDS011;54672;46.096;14.470;2024-02-26T06:58:05;17.88;;;5.40;;
67867;SDS011;54672;46.096;14.470;2024-02-26T07:00:31;10.10;;;4.47;;
67867;SDS011;54672;46.096;14.470;2024-02-26T07:02:56;10.88;;;5.00;;
67867;SDS011;54672;46.096;14.470;2024-02-26T07:05:23;21.40;;;5.25;;
67867;SDS011;54672;46.096;14.470;2024-02-26T07:07:48;23.25;;;5.65;;
67867;SDS011;54672;46.096;14.470;2024-02-26T07:10:14;19.73;;;5.40;;
67867;SDS011;54672;46.096;14.470;2024-02-26T07:12:39;55.67;;;7.65;;
67867;SDS011;54672;46.096;14.470;2024-02-26T07:15:05;17.60;;;4.95;;
67867;SDS011;54672;46.096;14.470;2024-02-26T07:17:33;24.30;;;6.72;;
67867;SDS011;54672;46.096;14.470;2024-02-26T07:20:02;20.35;;;5.25;;
67867;SDS011;54672;46.096;14.470;2024-02-26T07:22:30;21.42;;;5.00;;
67867;SDS011;54672;46.096;14.470;2024-02-26T07:24:56;25.17;;;6.20;;
67867;SDS011;54672;46.096;14.470;2024-02-26T07:27:21;13.85;;;5.35;;
67867;SDS011;54672;46.096;14.470;2024-02-26T07:29:47;25.58;;;5.85;;
67867;SDS011;54672;46.096;14.470;2024-02-26T07:32:12;23.33;;;5.57;;
67867;SDS011;54672;46.096;14.470;2024-02-26T07:34:38;17.58;;;5.25;;
67867;SDS011;54672;46.096;14.470;2024-02-26T07:37:07;18.45;;;5.55;;
67867;SDS011;54672;46.096;14.470;2024-02-26T07:39:32;23.02;;;7.00;;
67867;SDS011;54672;46.096;14.470;2024-02-26T07:41:58;30.02;;;6.22;;
67867;SDS011;54672;46.096;14.470;2024-02-26T07:44:23;18.88;;;4.57;;
67867;SDS011;54672;46.096;14.470;2024-02-26T07:46:49;14.20;;;6.03;;
67867;SDS011;54672;46.096;14.470;2024-02-26T07:49:14;22.92;;;6.15;;
67867;SDS011;54672;46.096;14.470;2024-02-26T07:51:40;18.33;;;5.72;;
67867;SDS011;54672;46.096;14.470;2024-02-26T07:54:05;17.92;;;5.35;;
67867;SDS011;54672;46.096;14.470;2024-02-26T07:56:31;16.17;;;5.57;;
67867;SDS011;54672;46.096;14.470;2024-02-26T07:58:56;29.20;;;6.53;;
67867;SDS011;54672;46.096;14.470;2024-02-26T08:01:22;35.70;;;8.43;;
67867;SDS011;54672;46.096;14.470;2024-02-26T08:03:48;28.15;;;6.68;;
67867;SDS011;54672;46.096;14.470;2024-02-26T08:06:13;31.05;;;7.55;;
67867;SDS011;54672;46.096;14.470;2024-02-26T08:08:39;22.15;;;6.18;;
67867;SDS011;54672;46.096;14.470;2024-02-26T08:11:04;23.10;;;7.13;;
67867;SDS011;54672;46.096;14.470;2024-02-26T08:13:30;23.80;;;7.13;;
67867;SDS011;54672;46.096;14.470;2024-02-26T08:15:55;23.95;;;7.45;;
67867;SDS011;54672;46.096;14.470;2024-02-26T08:18:20;30.33;;;7.38;;
67867;SDS011;54672;46.096;14.470;2024-02-26T08:20:46;11.40;;;5.72;;
67867;SDS011;54672;46.096;14.470;2024-02-26T08:23:13;12.43;;;6.28;;
67867;SDS011;54672;46.096;14.470;2024-02-26T08:25:39;16.48;;;7.47;;
67867;SDS011;54672;46.096;14.470;2024-02-26T08:28:05;19.45;;;6.85;;
67867;SDS011;54672;46.096;14.470;2024-02-26T08:30:30;14.80;;;7.22;;
67867;SDS011;54672;46.096;14.470;2024-02-26T08:32:56;15.52;;;6.68;;
67867;SDS011;54672;46.096;14.470;2024-02-26T08:35:21;17.67;;;7.65;;
67867;SDS011;54672;46.096;14.470;2024-02-26T08:37:47;17.15;;;6.68;;
67867;SDS011;54672;46.096;14.470;2024-02-26T08:40:13;19.58;;;7.55;;
67867;SDS011;54672;46.096;14.470;2024-02-26T08:42:39;30.30;;;8.45;;
67867;SDS011;54672;46.096;14.470;2024-02-26T08:45:04;26.08;;;9.80;;
67867;SDS011;54672;46.096;14.470;2024-02-26T08:47:31;28.85;;;9.30;;
67867;SDS011;54672;46.096;14.470;2024-02-26T08:49:57;17.15;;;8.95;;
67867;SDS011;54672;46.096;14.470;2024-02-26T08:52:23;24.30;;;9.52;;
67867;SDS011;54672;46.096;14.470;2024-02-26T08:54:48;25.33;;;10.38;;
67867;SDS011;54672;46.096;14.470;2024-02-26T08:57:14;25.92;;;9.98;;
67867;SDS011;54672;46.096;14.470;2024-02-26T08:59:40;23.75;;;9.30;;
67867;SDS011;54672;46.096;14.470;2024-02-26T09:02:05;21.60;;;9.85;;
67867;SDS011;54672;46.096;14.470;2024-02-26T09:04:31;31.50;;;10.13;;
67867;SDS011;54672;46.096;14.470;2024-02-26T09:06:56;31.85;;;9.18;;
67867;SDS011;54672;46.096;14.470;2024-02-26T09:09:21;30.40;;;10.60;;
67867;SDS011;54672;46.096;14.470;2024-02-26T09:11:47;19.10;;;8.60;;
67867;SDS011;54672;46.096;14.470;2024-02-26T09:14:13;19.95;;;8.10;;
67867;SDS011;54672;46.096;14.470;2024-02-26T09:16:39;16.88;;;8.00;;
67867;SDS011;54672;46.096;14.470;2024-02-26T09:19:04;20.80;;;8.52;;
67867;SDS011;54672;46.096;14.470;2024-02-26T09:21:30;26.60;;;10.30;;
67867;SDS011;54672;46.096;14.470;2024-02-26T09:23:55;26.77;;;10.63;;
67867;SDS011;54672;46.096;14.470;2024-02-26T09:26:21;26.60;;;10.80;;
67867;SDS011;54672;46.096;14.470;2024-02-26T09:28:46;25.48;;;10.48;;
67867;SDS011;54672;46.096;14.470;2024-02-26T09:31:12;25.05;;;9.60;;
67867;SDS011;54672;46.096;14.470;2024-02-26T09:33:37;25.10;;;10.38;;
67867;SDS011;54672;46.096;14.470;2024-02-26T09:36:04;20.35;;;8.88;;
67867;SDS011;54672;46.096;14.470;2024-02-26T09:38:31;21.55;;;9.10;;
67867;SDS011;54672;46.096;14.470;2024-02-26T09:41:02;18.88;;;8.77;;
67867;SDS011;54672;46.096;14.470;2024-02-26T09:43:27;18.98;;;9.23;;
67867;SDS011;54672;46.096;14.470;2024-02-26T09:48:26;16.73;;;8.20;;
67867;SDS011;54672;46.096;14.470;2024-02-26T09:50:53;22.15;;;9.73;;
67867;SDS011;54672;46.096;14.470;2024-02-26T09:53:18;23.23;;;10.27;;
67867;SDS011;54672;46.096;14.470;2024-02-26T09:55:47;21.75;;;10.05;;
67867;SDS011;54672;46.096;14.470;2024-02-26T09:58:13;20.10;;;9.02;;
67867;SDS011;54672;46.096;14.470;2024-02-26T10:00:43;18.38;;;8.65;;
67867;SDS011;54672;46.096;14.470;2024-02-26T10:03:15;14.73;;;7.13;;
67867;SDS011;54672;46.096;14.470;2024-02-26T10:05:41;13.82;;;7.20;;
67867;SDS011;54672;46.096;14.470;2024-02-26T10:08:08;15.85;;;6.88;;
67867;SDS011;54672;46.096;14.470;2024-02-26T10:10:35;16.23;;;7.90;;
67867;SDS011;54672;46.096;14.470;2024-02-26T10:13:03;21.02;;;8.88;;
67867;SDS011;54672;46.096;14.470;2024-02-26T10:15:31;22.77;;;8.95;;
67867;SDS011;54672;46.096;14.470;2024-02-26T10:17:57;19.20;;;8.95;;
67867;SDS011;54672;46.096;14.470;2024-02-26T10:20:23;18.10;;;8.55;;
67867;SDS011;54672;46.096;14.470;2024-02-26T10:22:48;19.30;;;8.40;;
67867;SDS011;54672;46.096;14.470;2024-02-26T10:25:15;15.55;;;7.40;;
67867;SDS011;54672;46.096;14.470;2024-02-26T10:27:41;17.10;;;7.18;;
67867;SDS011;54672;46.096;14.470;2024-02-26T10:30:19;15.02;;;6.72;;
67867;SDS011;54672;46.096;14.470;2024-02-26T10:32:50;14.85;;;6.63;;
67867;SDS011;54672;46.096;14.470;2024-02-26T10:35:16;15.63;;;7.70;;
67867;SDS011;54672;46.096;14.470;2024-02-26T10:37:43;13.57;;;7.20;;
67867;SDS011;54672;46.096;14.470;2024-02-26T10:40:12;18.17;;;7.20;;
67867;SDS011;54672;46.096;14.470;2024-02-26T10:42:39;14.98;;;6.72;;
67867;SDS011;54672;46.096;14.470;2024-02-26T10:45:05;17.80;;;8.20;;
67867;SDS011;54672;46.096;14.470;2024-02-26T10:47:32;12.30;;;6.78;;
67867;SDS011;54672;46.096;14.470;2024-02-26T10:49:59;15.10;;;7.90;;
67867;SDS011;54672;46.096;14.470;2024-02-26T10:52:26;16.67;;;8.07;;
67867;SDS011;54672;46.096;14.470;2024-02-26T10:54:53;16.05;;;8.63;;
67867;SDS011;54672;46.096;14.470;2024-02-26T10:57:21;12.35;;;6.63;;
67867;SDS011;54672;46.096;14.470;2024-02-26T10:59:49;13.77;;;6.53;;
67867;SDS011;54672;46.096;14.470;2024-02-26T11:02:16;12.52;;;6.78;;
67867;SDS011;54672;46.096;14.470;2024-02-26T11:04:42;14.60;;;7.35;;
67867;SDS011;54672;46.096;14.470;2024-02-26T11:07:09;15.98;;;7.03;;
67867;SDS011;54672;46.096;14.470;2024-02-26T11:09:35;15.13;;;8.07;;
67867;SDS011;54672;46.096;14.470;2024-02-26T11:12:07;17.17;;;6.70;;
67867;SDS011;54672;46.096;14.470;2024-02-26T11:14:36;14.48;;;7.78;;
67867;SDS011;54672;46.096;14.470;2024-02-26T11:17:04;17.17;;;8.32;;
67867;SDS011;54672;46.096;14.470;2024-02-26T11:19:32;13.90;;;7.60;;
67867;SDS011;54672;46.096;14.470;2024-02-26T11:22:01;15.57;;;7.32;;
67867;SDS011;54672;46.096;14.470;2024-02-26T11:24:27;20.38;;;8.32;;
67867;SDS011;54672;46.096;14.470;2024-02-26T11:26:54;13.38;;;6.90;;
67867;SDS011;54672;46.096;14.470;2024-02-26T11:29:27;14.27;;;7.00;;
67867;SDS011;54672;46.096;14.470;2024-02-26T11:31:58;12.53;;;6.43;;
67867;SDS011;54672;46.096;14.470;2024-02-26T11:34:25;12.23;;;6.25;;
67867;SDS011;54672;46.096;14.470;2024-02-26T11:36:51;11.20;;;5.97;;
67867;SDS011;54672;46.096;14.470;2024-02-26T11:39:16;10.25;;;5.28;;
67867;SDS011;54672;46.096;14.470;2024-02-26T11:41:42;9.02;;;5.05;;
67867;SDS011;54672;46.096;14.470;2024-02-26T11:44:08;13.05;;;6.72;;
67867;SDS011;54672;46.096;14.470;2024-02-26T11:46:40;13.57;;;6.78;;
67867;SDS011;54672;46.096;14.470;2024-02-26T11:51:56;17.35;;;7.20;;
67867;SDS011;54672;46.096;14.470;2024-02-26T11:57:22;11.98;;;6.40;;
67867;SDS011;54672;46.096;14.470;2024-02-26T11:59:55;15.55;;;6.47;;
67867;SDS011;54672;46.096;14.470;2024-02-26T12:02:41;10.15;;;5.45;;
67867;SDS011;54672;46.096;14.470;2024-02-26T12:07:49;15.00;;;5.88;;
67867;SDS011;54672;46.096;14.470;2024-02-26T12:10:24;11.90;;;5.88;;
67867;SDS011;54672;46.096;14.470;2024-02-26T12:15:23;22.52;;;8.98;;
67867;SDS011;54672;46.096;14.470;2024-02-26T12:17:49;17.00;;;6.97;;
67867;SDS011;54672;46.096;14.470;2024-02-26T12:20:16;10.50;;;6.03;;
67867;SDS011;54672;46.096;14.470;2024-02-26T12:22:46;10.75;;;5.75;;
67867;SDS011;54672;46.096;14.470;2024-02-26T12:25:15;11.60;;;5.53;;
67867;SDS011;54672;46.096;14.470;2024-02-26T12:27:41;9.95;;;5.43;;
67867;SDS011;54672;46.096;14.470;2024-02-26T12:30:06;9.32;;;5.38;;
67867;SDS011;54672;46.096;14.470;2024-02-26T12:32:33;8.77;;;5.30;;
67867;SDS011;54672;46.096;14.470;2024-02-26T12:35:00;12.27;;;5.15;;
67867;SDS011;54672;46.096;14.470;2024-02-26T12:37:26;9.80;;;5.50;;
67867;SDS011;54672;46.096;14.470;2024-02-26T12:39:53;9.50;;;5.10;;
67867;SDS011;54672;46.096;14.470;2024-02-26T12:42:18;9.90;;;5.05;;
67867;SDS011;54672;46.096;14.470;2024-02-26T12:44:45;5.68;;;3.90;;
67867;SDS011;54672;46.096;14.470;2024-02-26T12:47:11;6.85;;;3.70;;
67867;SDS011;54672;46.096;14.470;2024-02-26T12:49:42;6.55;;;3.60;;
67867;SDS011;54672;46.096;14.470;2024-02-26T12:52:09;4.82;;;3.20;;
67867;SDS011;54672;46.096;14.470;2024-02-26T12:54:35;9.85;;;3.63;;
67867;SDS011;54672;46.096;14.470;2024-02-26T12:57:04;6.57;;;3.53;;
67867;SDS011;54672;46.096;14.470;2024-02-26T12:59:31;4.57;;;2.75;;
67867;SDS011;54672;46.096;14.470;2024-02-26T13:01:58;7.45;;;3.70;;
67867;SDS011;54672;46.096;14.470;2024-02-26T13:04:24;8.38;;;3.75;;
67867;SDS011;54672;46.096;14.470;2024-02-26T13:06:52;6.97;;;4.10;;
67867;SDS011;54672;46.096;14.470;2024-02-26T13:09:18;10.27;;;4.78;;
67867;SDS011;54672;46.096;14.470;2024-02-26T13:11:44;9.00;;;4.60;;
67867;SDS011;54672;46.096;14.470;2024-02-26T13:14:19;5.95;;;3.03;;
67867;SDS011;54672;46.096;14.470;2024-02-26T13:16:54;8.60;;;3.40;;
67867;SDS011;54672;46.096;14.470;2024-02-26T13:19:22;8.77;;;3.97;;
67867;SDS011;54672;46.096;14.470;2024-02-26T13:21:48;9.85;;;3.95;;
67867;SDS011;54672;46.096;14.470;2024-02-26T13:24:13;6.03;;;3.28;;
67867;SDS011;54672;46.096;14.470;2024-02-26T13:26:39;7.55;;;3.80;;
67867;SDS011;54672;46.096;14.470;2024-02-26T13:29:05;8.57;;;3.40;;
67867;SDS011;54672;46.096;14.470;2024-02-26T13:31:30;12.50;;;4.90;;
67867;SDS011;54672;46.096;14.470;2024-02-26T13:33:56;11.77;;;5.75;;
67867;SDS011;54672;46.096;14.470;2024-02-26T13:36:22;15.63;;;7.05;;
67867;SDS011;54672;46.096;14.470;2024-02-26T13:38:53;8.48;;;4.13;;
67867;SDS011;54672;46.096;14.470;2024-02-26T13:41:19;9.10;;;3.97;;
67867;SDS011;54672;46.096;14.470;2024-02-26T13:43:46;11.00;;;3.83;;
67867;SDS011;54672;46.096;14.470;2024-02-26T13:46:12;10.40;;;3.95;;
67867;SDS011;54672;46.096;14.470;2024-02-26T13:48:39;11.88;;;6.03;;
67867;SDS011;54672;46.096;14.470;2024-02-26T13:51:04;10.77;;;4.10;;
67867;SDS011;54672;46.096;14.470;2024-02-26T13:53:30;7.55;;;3.45;;
67867;SDS011;54672;46.096;14.470;2024-02-26T13:55:55;10.25;;;4.68;;
67867;SDS011;54672;46.096;14.470;2024-02-26T13:58:23;6.70;;;4.05;;
67867;SDS011;54672;46.096;14.470;2024-02-26T14:00:49;8.93;;;3.97;;
67867;SDS011;54672;46.096;14.470;2024-02-26T14:03:14;10.25;;;4.30;;
67867;SDS011;54672;46.096;14.470;2024-02-26T14:05:41;7.45;;;3.60;;
67867;SDS011;54672;46.096;14.470;2024-02-26T14:08:07;5.78;;;3.72;;
67867;SDS011;54672;46.096;14.470;2024-02-26T14:10:32;9.27;;;4.15;;
67867;SDS011;54672;46.096;14.470;2024-02-26T14:12:58;8.52;;;3.80;;
67867;SDS011;54672;46.096;14.470;2024-02-26T14:15:27;9.32;;;4.05;;
67867;SDS011;54672;46.096;14.470;2024-02-26T14:17:53;8.50;;;4.25;;
67867;SDS011;54672;46.096;14.470;2024-02-26T14:20:21;8.80;;;3.75;;
67867;SDS011;54672;46.096;14.470;2024-02-26T14:22:47;9.52;;;4.35;;
67867;SDS011;54672;46.096;14.470;2024-02-26T14:25:13;9.38;;;4.20;;
67867;SDS011;54672;46.096;14.470;2024-02-26T14:27:39;13.20;;;6.85;;
67867;SDS011;54672;46.096;14.470;2024-02-26T14:30:05;7.85;;;3.78;;
67867;SDS011;54672;46.096;14.470;2024-02-26T14:32:31;9.82;;;5.35;;
67867;SDS011;54672;46.096;14.470;2024-02-26T14:35:00;9.25;;;4.70;;